sensor_id;sensor_type;location;lat;lon;timestamp;P1;durP1;ratioP1;P2;durP2;ratioP2
7835;SDS011;3963;42.658;23.298;2022-08-19T00:00:09;7.07;;;5.77;;
7835;SDS011;3963;42.658;23.298;2022-08-19T00:02:39;7.23;;;5.30;;
7835;SDS011;3963;42.658;23.298;2022-08-19T00:05:06;7.87;;;5.37;;
7835;SDS011;3963;42.658;23.298;2022-08-19T00:07:33;6.80;;;5.80;;
7835;SDS011;3963;42.658;23.298;2022-08-19T00:10:00;10.63;;;6.03;;
7835;SDS011;3963;42.658;23.298;2022-08-19T00:12:27;7.43;;;5.90;;
7835;SDS011;3963;42.658;23.298;2022-08-19T00:14:56;7.83;;;5.50;;
7835;SDS011;3963;42.658;23.298;2022-08-19T00:17:23;8.00;;;5.73;;
7835;SDS011;3963;42.658;23.298;2022-08-19T00:19:49;7.00;;;6.10;;
7835;SDS011;3963;42.658;23.298;2022-08-19T00:22:16;6.57;;;5.67;;
7835;SDS011;3963;42.658;23.298;2022-08-19T00:24:43;9.57;;;5.93;;
7835;SDS011;3963;42.658;23.298;2022-08-19T00:27:10;7.23;;;5.70;;
7835;SDS011;3963;42.658;23.298;2022-08-19T00:29:38;9.13;;;5.73;;
7835;SDS011;3963;42.658;23.298;2022-08-19T00:32:06;7.63;;;5.77;;
7835;SDS011;3963;42.658;23.298;2022-08-19T00:34:33;6.80;;;5.47;;
7835;SDS011;3963;42.658;23.298;2022-08-19T00:37:00;8.17;;;6.20;;
7835;SDS011;3963;42.658;23.298;2022-08-19T00:39:27;8.03;;;5.90;;
7835;SDS011;3963;42.658;23.298;2022-08-19T00:41:55;8.73;;;5.50;;
7835;SDS011;3963;42.658;23.298;2022-08-19T00:44:23;8.90;;;5.60;;
7835;SDS011;3963;42.658;23.298;2022-08-19T00:46:52;10.17;;;5.67;;
7835;SDS011;3963;42.658;23.298;2022-08-19T00:49:22;6.63;;;5.90;;
7835;SDS011;3963;42.658;23.298;2022-08-19T00:51:53;7.63;;;5.53;;
7835;SDS011;3963;42.658;23.298;2022-08-19T00:54:24;7.30;;;5.77;;
7835;SDS011;3963;42.658;23.298;2022-08-19T00:56:51;8.07;;;5.80;;
7835;SDS011;3963;42.658;23.298;2022-08-19T00:59:19;9.17;;;5.67;;
7835;SDS011;3963;42.658;23.298;2022-08-19T01:01:47;6.23;;;5.63;;
7835;SDS011;3963;42.658;23.298;2022-08-19T01:04:14;10.03;;;5.97;;
7835;SDS011;3963;42.658;23.298;2022-08-19T01:06:42;7.83;;;5.80;;
7835;SDS011;3963;42.658;23.298;2022-08-19T01:09:09;7.63;;;5.70;;
7835;SDS011;3963;42.658;23.298;2022-08-19T01:11:37;11.13;;;5.80;;
7835;SDS011;3963;42.658;23.298;2022-08-19T01:14:08;6.37;;;5.50;;
7835;SDS011;3963;42.658;23.298;2022-08-19T01:16:36;7.37;;;6.10;;
7835;SDS011;3963;42.658;23.298;2022-08-19T01:19:07;7.87;;;5.60;;
7835;SDS011;3963;42.658;23.298;2022-08-19T01:21:42;7.50;;;5.50;;
7835;SDS011;3963;42.658;23.298;2022-08-19T01:24:17;7.37;;;5.83;;
7835;SDS011;3963;42.658;23.298;2022-08-19T01:26:44;7.30;;;5.77;;
7835;SDS011;3963;42.658;23.298;2022-08-19T01:29:13;8.57;;;5.67;;
7835;SDS011;3963;42.658;23.298;2022-08-19T01:31:40;10.90;;;7.03;;
7835;SDS011;3963;42.658;23.298;2022-08-19T01:34:07;7.30;;;6.03;;
7835;SDS011;3963;42.658;23.298;2022-08-19T01:36:36;8.10;;;6.50;;
7835;SDS011;3963;42.658;23.298;2022-08-19T01:39:05;9.03;;;6.00;;
7835;SDS011;3963;42.658;23.298;2022-08-19T01:41:35;8.37;;;6.50;;
7835;SDS011;3963;42.658;23.298;2022-08-19T01:44:03;6.70;;;6.03;;
7835;SDS011;3963;42.658;23.298;2022-08-19T01:46:30;8.60;;;6.13;;
7835;SDS011;3963;42.658;23.298;2022-08-19T01:48:58;8.80;;;5.90;;
7835;SDS011;3963;42.658;23.298;2022-08-19T01:51:25;6.70;;;6.00;;
7835;SDS011;3963;42.658;23.298;2022-08-19T01:53:53;7.10;;;6.13;;
7835;SDS011;3963;42.658;23.298;2022-08-19T01:56:20;6.70;;;5.97;;
7835;SDS011;3963;42.658;23.298;2022-08-19T01:58:49;7.17;;;5.90;;
7835;SDS011;3963;42.658;23.298;2022-08-19T02:01:19;7.20;;;6.27;;
7835;SDS011;3963;42.658;23.298;2022-08-19T02:03:46;9.43;;;6.47;;
7835;SDS011;3963;42.658;23.298;2022-08-19T02:06:13;9.97;;;6.23;;
7835;SDS011;3963;42.658;23.298;2022-08-19T02:08:42;7.97;;;6.53;;
7835;SDS011;3963;42.658;23.298;2022-08-19T02:11:17;8.47;;;6.37;;
7835;SDS011;3963;42.658;23.298;2022-08-19T02:13:45;9.97;;;6.20;;
7835;SDS011;3963;42.658;23.298;2022-08-19T02:16:16;10.57;;;5.97;;
7835;SDS011;3963;42.658;23.298;2022-08-19T02:18:43;7.37;;;5.87;;
7835;SDS011;3963;42.658;23.298;2022-08-19T02:21:10;8.23;;;6.43;;
7835;SDS011;3963;42.658;23.298;2022-08-19T02:23:38;7.70;;;6.77;;
7835;SDS011;3963;42.658;23.298;2022-08-19T02:26:05;9.83;;;6.87;;
7835;SDS011;3963;42.658;23.298;2022-08-19T02:28:32;8.20;;;6.80;;
7835;SDS011;3963;42.658;23.298;2022-08-19T02:31:00;8.67;;;6.90;;
7835;SDS011;3963;42.658;23.298;2022-08-19T02:33:27;9.43;;;7.00;;
7835;SDS011;3963;42.658;23.298;2022-08-19T02:35:55;12.53;;;7.50;;
7835;SDS011;3963;42.658;23.298;2022-08-19T02:38:22;13.50;;;7.37;;
7835;SDS011;3963;42.658;23.298;2022-08-19T02:40:50;11.53;;;6.77;;
7835;SDS011;3963;42.658;23.298;2022-08-19T02:43:18;7.67;;;6.53;;
7835;SDS011;3963;42.658;23.298;2022-08-19T02:45:46;7.73;;;6.77;;
7835;SDS011;3963;42.658;23.298;2022-08-19T02:48:16;8.27;;;6.70;;
7835;SDS011;3963;42.658;23.298;2022-08-19T02:50:44;9.60;;;6.37;;
7835;SDS011;3963;42.658;23.298;2022-08-19T02:53:11;7.97;;;6.13;;
7835;SDS011;3963;42.658;23.298;2022-08-19T02:55:42;8.93;;;6.80;;
7835;SDS011;3963;42.658;23.298;2022-08-19T02:58:10;10.20;;;7.00;;
7835;SDS011;3963;42.658;23.298;2022-08-19T03:00:40;12.00;;;7.00;;
7835;SDS011;3963;42.658;23.298;2022-08-19T03:03:08;8.67;;;6.80;;
7835;SDS011;3963;42.658;23.298;2022-08-19T03:05:38;12.77;;;7.07;;
7835;SDS011;3963;42.658;23.298;2022-08-19T03:08:05;7.60;;;6.80;;
7835;SDS011;3963;42.658;23.298;2022-08-19T03:10:39;8.47;;;6.47;;
7835;SDS011;3963;42.658;23.298;2022-08-19T03:13:09;10.13;;;7.40;;
7835;SDS011;3963;42.658;23.298;2022-08-19T03:15:38;10.40;;;6.50;;
7835;SDS011;3963;42.658;23.298;2022-08-19T03:18:07;10.80;;;6.93;;
7835;SDS011;3963;42.658;23.298;2022-08-19T03:20:33;11.77;;;7.13;;
7835;SDS011;3963;42.658;23.298;2022-08-19T03:23:02;13.67;;;7.13;;
7835;SDS011;3963;42.658;23.298;2022-08-19T03:25:29;9.50;;;7.40;;
7835;SDS011;3963;42.658;23.298;2022-08-19T03:27:55;11.77;;;7.33;;
7835;SDS011;3963;42.658;23.298;2022-08-19T03:30:22;8.43;;;6.93;;
7835;SDS011;3963;42.658;23.298;2022-08-19T03:32:49;8.60;;;7.53;;
7835;SDS011;3963;42.658;23.298;2022-08-19T03:35:16;7.73;;;6.83;;
7835;SDS011;3963;42.658;23.298;2022-08-19T03:37:45;8.70;;;7.10;;
7835;SDS011;3963;42.658;23.298;2022-08-19T03:40:13;8.93;;;7.23;;
7835;SDS011;3963;42.658;23.298;2022-08-19T03:42:40;7.90;;;6.43;;
7835;SDS011;3963;42.658;23.298;2022-08-19T03:45:07;11.40;;;7.37;;
7835;SDS011;3963;42.658;23.298;2022-08-19T03:47:35;11.77;;;7.07;;
7835;SDS011;3963;42.658;23.298;2022-08-19T03:50:03;9.60;;;7.43;;
7835;SDS011;3963;42.658;23.298;2022-08-19T03:52:30;12.70;;;7.37;;
7835;SDS011;3963;42.658;23.298;2022-08-19T03:54:57;11.13;;;6.80;;
7835;SDS011;3963;42.658;23.298;2022-08-19T03:57:26;12.27;;;7.97;;
7835;SDS011;3963;42.658;23.298;2022-08-19T03:59:53;12.03;;;7.33;;
7835;SDS011;3963;42.658;23.298;2022-08-19T04:02:20;11.97;;;7.53;;
7835;SDS011;3963;42.658;23.298;2022-08-19T04:04:47;13.47;;;7.87;;
7835;SDS011;3963;42.658;23.298;2022-08-19T04:07:14;18.90;;;7.80;;
7835;SDS011;3963;42.658;23.298;2022-08-19T04:09:43;17.87;;;8.00;;
7835;SDS011;3963;42.658;23.298;2022-08-19T04:12:10;17.53;;;8.80;;
7835;SDS011;3963;42.658;23.298;2022-08-19T04:14:38;15.73;;;7.90;;
7835;SDS011;3963;42.658;23.298;2022-08-19T04:17:05;16.70;;;7.63;;
7835;SDS011;3963;42.658;23.298;2022-08-19T04:19:32;12.37;;;7.80;;
7835;SDS011;3963;42.658;23.298;2022-08-19T04:22:00;12.60;;;7.80;;
7835;SDS011;3963;42.658;23.298;2022-08-19T04:24:27;14.40;;;8.33;;
7835;SDS011;3963;42.658;23.298;2022-08-19T04:26:54;10.13;;;7.47;;
7835;SDS011;3963;42.658;23.298;2022-08-19T04:29:22;8.40;;;7.40;;
7835;SDS011;3963;42.658;23.298;2022-08-19T04:31:51;10.97;;;7.83;;
7835;SDS011;3963;42.658;23.298;2022-08-19T04:34:21;12.57;;;8.37;;
7835;SDS011;3963;42.658;23.298;2022-08-19T04:36:49;12.83;;;7.27;;
7835;SDS011;3963;42.658;23.298;2022-08-19T04:39:18;14.17;;;8.03;;
7835;SDS011;3963;42.658;23.298;2022-08-19T04:41:47;14.87;;;7.67;;
7835;SDS011;3963;42.658;23.298;2022-08-19T04:44:32;14.43;;;7.87;;
7835;SDS011;3963;42.658;23.298;2022-08-19T04:47:02;11.23;;;7.87;;
7835;SDS011;3963;42.658;23.298;2022-08-19T04:49:31;10.37;;;7.53;;
7835;SDS011;3963;42.658;23.298;2022-08-19T04:51:58;13.40;;;7.77;;
7835;SDS011;3963;42.658;23.298;2022-08-19T04:54:25;13.10;;;8.50;;
7835;SDS011;3963;42.658;23.298;2022-08-19T04:56:52;12.43;;;9.23;;
7835;SDS011;3963;42.658;23.298;2022-08-19T04:59:20;9.20;;;7.87;;
7835;SDS011;3963;42.658;23.298;2022-08-19T05:01:47;14.00;;;8.00;;
7835;SDS011;3963;42.658;23.298;2022-08-19T05:04:17;10.73;;;8.03;;
7835;SDS011;3963;42.658;23.298;2022-08-19T05:06:45;14.90;;;8.47;;
7835;SDS011;3963;42.658;23.298;2022-08-19T05:09:13;14.43;;;8.27;;
7835;SDS011;3963;42.658;23.298;2022-08-19T05:11:41;13.43;;;7.87;;
7835;SDS011;3963;42.658;23.298;2022-08-19T05:14:08;13.30;;;8.50;;
7835;SDS011;3963;42.658;23.298;2022-08-19T05:16:37;18.53;;;8.63;;
7835;SDS011;3963;42.658;23.298;2022-08-19T05:19:04;10.87;;;8.60;;
7835;SDS011;3963;42.658;23.298;2022-08-19T05:21:50;11.27;;;9.23;;
7835;SDS011;3963;42.658;23.298;2022-08-19T05:24:35;13.70;;;8.77;;
7835;SDS011;3963;42.658;23.298;2022-08-19T05:27:03;17.43;;;8.33;;
7835;SDS011;3963;42.658;23.298;2022-08-19T05:29:30;12.20;;;8.37;;
7835;SDS011;3963;42.658;23.298;2022-08-19T05:31:59;12.87;;;8.90;;
7835;SDS011;3963;42.658;23.298;2022-08-19T05:34:26;16.03;;;9.57;;
7835;SDS011;3963;42.658;23.298;2022-08-19T05:36:55;12.10;;;8.37;;
7835;SDS011;3963;42.658;23.298;2022-08-19T05:39:25;16.70;;;8.87;;
7835;SDS011;3963;42.658;23.298;2022-08-19T05:41:54;11.90;;;7.60;;
7835;SDS011;3963;42.658;23.298;2022-08-19T05:44:23;10.27;;;7.43;;
7835;SDS011;3963;42.658;23.298;2022-08-19T05:46:50;9.00;;;7.17;;
7835;SDS011;3963;42.658;23.298;2022-08-19T05:49:19;10.47;;;7.50;;
7835;SDS011;3963;42.658;23.298;2022-08-19T05:51:48;13.47;;;8.07;;
7835;SDS011;3963;42.658;23.298;2022-08-19T05:54:17;14.20;;;8.83;;
7835;SDS011;3963;42.658;23.298;2022-08-19T05:56:44;8.47;;;7.33;;
7835;SDS011;3963;42.658;23.298;2022-08-19T05:59:13;9.70;;;7.07;;
7835;SDS011;3963;42.658;23.298;2022-08-19T06:01:42;8.30;;;6.47;;
7835;SDS011;3963;42.658;23.298;2022-08-19T06:04:10;15.23;;;6.93;;
7835;SDS011;3963;42.658;23.298;2022-08-19T06:06:38;7.73;;;6.50;;
7835;SDS011;3963;42.658;23.298;2022-08-19T06:09:06;8.33;;;7.13;;
7835;SDS011;3963;42.658;23.298;2022-08-19T06:11:38;10.80;;;8.17;;
7835;SDS011;3963;42.658;23.298;2022-08-19T06:14:09;12.20;;;8.03;;
7835;SDS011;3963;42.658;23.298;2022-08-19T06:16:38;12.97;;;7.57;;
7835;SDS011;3963;42.658;23.298;2022-08-19T06:19:07;10.07;;;7.83;;
7835;SDS011;3963;42.658;23.298;2022-08-19T06:21:36;12.87;;;8.60;;
7835;SDS011;3963;42.658;23.298;2022-08-19T06:24:05;11.70;;;8.40;;
7835;SDS011;3963;42.658;23.298;2022-08-19T06:26:34;9.87;;;8.20;;
7835;SDS011;3963;42.658;23.298;2022-08-19T06:29:05;12.20;;;8.07;;
7835;SDS011;3963;42.658;23.298;2022-08-19T06:31:33;11.07;;;7.97;;
7835;SDS011;3963;42.658;23.298;2022-08-19T06:34:01;11.00;;;8.63;;
7835;SDS011;3963;42.658;23.298;2022-08-19T06:36:30;12.97;;;8.83;;
7835;SDS011;3963;42.658;23.298;2022-08-19T06:38:59;13.70;;;9.10;;
7835;SDS011;3963;42.658;23.298;2022-08-19T06:41:26;9.97;;;8.57;;
7835;SDS011;3963;42.658;23.298;2022-08-19T06:43:55;10.40;;;7.90;;
7835;SDS011;3963;42.658;23.298;2022-08-19T06:46:22;11.37;;;8.70;;
7835;SDS011;3963;42.658;23.298;2022-08-19T06:48:49;11.23;;;8.30;;
7835;SDS011;3963;42.658;23.298;2022-08-19T06:51:18;14.17;;;7.93;;
7835;SDS011;3963;42.658;23.298;2022-08-19T06:53:45;13.53;;;7.97;;
7835;SDS011;3963;42.658;23.298;2022-08-19T06:56:13;13.43;;;7.80;;
7835;SDS011;3963;42.658;23.298;2022-08-19T06:58:41;8.80;;;7.23;;
7835;SDS011;3963;42.658;23.298;2022-08-19T07:01:09;13.07;;;8.47;;
7835;SDS011;3963;42.658;23.298;2022-08-19T07:03:37;14.90;;;7.73;;
7835;SDS011;3963;42.658;23.298;2022-08-19T07:06:05;12.00;;;7.77;;
7835;SDS011;3963;42.658;23.298;2022-08-19T07:08:34;9.47;;;7.73;;
7835;SDS011;3963;42.658;23.298;2022-08-19T07:11:04;20.40;;;9.07;;
7835;SDS011;3963;42.658;23.298;2022-08-19T07:13:33;11.40;;;8.43;;
7835;SDS011;3963;42.658;23.298;2022-08-19T07:16:02;12.10;;;7.70;;
7835;SDS011;3963;42.658;23.298;2022-08-19T07:18:31;11.23;;;7.30;;
7835;SDS011;3963;42.658;23.298;2022-08-19T07:21:02;9.70;;;7.17;;
7835;SDS011;3963;42.658;23.298;2022-08-19T07:23:29;12.03;;;7.77;;
7835;SDS011;3963;42.658;23.298;2022-08-19T07:25:56;9.10;;;7.17;;
7835;SDS011;3963;42.658;23.298;2022-08-19T07:28:23;10.50;;;7.83;;
7835;SDS011;3963;42.658;23.298;2022-08-19T07:30:50;9.97;;;6.73;;
7835;SDS011;3963;42.658;23.298;2022-08-19T07:33:17;10.93;;;7.20;;
7835;SDS011;3963;42.658;23.298;2022-08-19T07:35:45;9.50;;;7.13;;
7835;SDS011;3963;42.658;23.298;2022-08-19T07:38:12;10.83;;;7.93;;
7835;SDS011;3963;42.658;23.298;2022-08-19T07:40:39;12.60;;;7.07;;
7835;SDS011;3963;42.658;23.298;2022-08-19T07:43:08;15.48;;;7.90;;
7835;SDS011;3963;42.658;23.298;2022-08-19T07:45:35;13.35;;;7.00;;
7835;SDS011;3963;42.658;23.298;2022-08-19T07:48:02;14.50;;;7.72;;
7835;SDS011;3963;42.658;23.298;2022-08-19T07:50:29;15.38;;;7.03;;
7835;SDS011;3963;42.658;23.298;2022-08-19T07:52:58;10.88;;;7.57;;
7835;SDS011;3963;42.658;23.298;2022-08-19T07:55:24;10.45;;;7.00;;
7835;SDS011;3963;42.658;23.298;2022-08-19T07:57:52;9.00;;;7.18;;
7835;SDS011;3963;42.658;23.298;2022-08-19T08:00:18;9.35;;;6.70;;
7835;SDS011;3963;42.658;23.298;2022-08-19T08:02:45;8.63;;;6.25;;
7835;SDS011;3963;42.658;23.298;2022-08-19T08:05:12;17.85;;;5.95;;
7835;SDS011;3963;42.658;23.298;2022-08-19T08:07:58;7.95;;;5.70;;
7835;SDS011;3963;42.658;23.298;2022-08-19T08:10:42;11.38;;;7.35;;
7835;SDS011;3963;42.658;23.298;2022-08-19T08:13:09;10.65;;;6.55;;
7835;SDS011;3963;42.658;23.298;2022-08-19T08:15:37;7.43;;;6.63;;
7835;SDS011;3963;42.658;23.298;2022-08-19T08:18:04;9.35;;;6.43;;
7835;SDS011;3963;42.658;23.298;2022-08-19T08:20:32;10.73;;;6.20;;
7835;SDS011;3963;42.658;23.298;2022-08-19T08:23:00;7.90;;;6.05;;
7835;SDS011;3963;42.658;23.298;2022-08-19T08:25:44;11.60;;;5.95;;
7835;SDS011;3963;42.658;23.298;2022-08-19T08:28:11;11.93;;;5.95;;
7835;SDS011;3963;42.658;23.298;2022-08-19T08:30:38;7.13;;;5.78;;
7835;SDS011;3963;42.658;23.298;2022-08-19T08:33:07;7.40;;;5.50;;
7835;SDS011;3963;42.658;23.298;2022-08-19T08:35:34;11.68;;;6.40;;
7835;SDS011;3963;42.658;23.298;2022-08-19T08:38:02;7.75;;;6.30;;
7835;SDS011;3963;42.658;23.298;2022-08-19T08:40:31;7.22;;;5.72;;
7835;SDS011;3963;42.658;23.298;2022-08-19T08:43:06;8.15;;;5.25;;
7835;SDS011;3963;42.658;23.298;2022-08-19T08:45:36;9.55;;;5.63;;
7835;SDS011;3963;42.658;23.298;2022-08-19T08:48:12;7.10;;;5.30;;
7835;SDS011;3963;42.658;23.298;2022-08-19T08:50:44;14.65;;;6.40;;
7835;SDS011;3963;42.658;23.298;2022-08-19T08:53:18;7.53;;;4.78;;
7835;SDS011;3963;42.658;23.298;2022-08-19T08:55:46;9.40;;;4.88;;
7835;SDS011;3963;42.658;23.298;2022-08-19T08:58:14;7.47;;;4.68;;
7835;SDS011;3963;42.658;23.298;2022-08-19T09:00:48;5.70;;;5.20;;
7835;SDS011;3963;42.658;23.298;2022-08-19T09:03:17;9.02;;;4.80;;
7835;SDS011;3963;42.658;23.298;2022-08-19T09:05:48;12.43;;;5.43;;
7835;SDS011;3963;42.658;23.298;2022-08-19T09:08:26;9.13;;;5.00;;
7835;SDS011;3963;42.658;23.298;2022-08-19T09:11:03;5.20;;;4.18;;
7835;SDS011;3963;42.658;23.298;2022-08-19T09:13:35;8.07;;;4.13;;
7835;SDS011;3963;42.658;23.298;2022-08-19T09:16:09;7.65;;;4.30;;
7835;SDS011;3963;42.658;23.298;2022-08-19T09:18:39;6.30;;;4.22;;
7835;SDS011;3963;42.658;23.298;2022-08-19T09:21:09;12.18;;;4.80;;
7835;SDS011;3963;42.658;23.298;2022-08-19T09:23:37;8.70;;;5.05;;
7835;SDS011;3963;42.658;23.298;2022-08-19T09:26:06;5.75;;;4.25;;
7835;SDS011;3963;42.658;23.298;2022-08-19T09:28:35;4.55;;;3.70;;
7835;SDS011;3963;42.658;23.298;2022-08-19T09:31:02;5.18;;;3.80;;
7835;SDS011;3963;42.658;23.298;2022-08-19T09:33:29;5.43;;;3.88;;
7835;SDS011;3963;42.658;23.298;2022-08-19T09:36:03;6.50;;;3.55;;
7835;SDS011;3963;42.658;23.298;2022-08-19T09:38:32;4.03;;;3.63;;
7835;SDS011;3963;42.658;23.298;2022-08-19T09:41:03;4.15;;;3.72;;
7835;SDS011;3963;42.658;23.298;2022-08-19T09:43:31;4.22;;;3.60;;
7835;SDS011;3963;42.658;23.298;2022-08-19T09:45:59;5.15;;;4.32;;
7835;SDS011;3963;42.658;23.298;2022-08-19T09:48:26;5.78;;;3.65;;
7835;SDS011;3963;42.658;23.298;2022-08-19T09:50:52;4.47;;;3.60;;
7835;SDS011;3963;42.658;23.298;2022-08-19T09:53:19;8.02;;;3.72;;
7835;SDS011;3963;42.658;23.298;2022-08-19T09:55:48;7.90;;;4.30;;
7835;SDS011;3963;42.658;23.298;2022-08-19T09:58:16;6.05;;;4.10;;
7835;SDS011;3963;42.658;23.298;2022-08-19T10:00:43;5.72;;;3.90;;
7835;SDS011;3963;42.658;23.298;2022-08-19T10:03:11;6.47;;;3.70;;
7835;SDS011;3963;42.658;23.298;2022-08-19T10:05:37;4.20;;;3.40;;
7835;SDS011;3963;42.658;23.298;2022-08-19T10:08:17;7.95;;;4.05;;
7835;SDS011;3963;42.658;23.298;2022-08-19T10:10:46;9.77;;;3.80;;
7835;SDS011;3963;42.658;23.298;2022-08-19T10:13:15;5.60;;;3.60;;
7835;SDS011;3963;42.658;23.298;2022-08-19T10:15:45;6.07;;;4.28;;
7835;SDS011;3963;42.658;23.298;2022-08-19T10:18:12;6.15;;;3.90;;
7835;SDS011;3963;42.658;23.298;2022-08-19T10:20:38;6.25;;;3.85;;
7835;SDS011;3963;42.658;23.298;2022-08-19T10:23:06;4.25;;;3.85;;
7835;SDS011;3963;42.658;23.298;2022-08-19T10:25:33;7.80;;;4.63;;
7835;SDS011;3963;42.658;23.298;2022-08-19T10:28:00;4.75;;;3.70;;
7835;SDS011;3963;42.658;23.298;2022-08-19T10:30:28;4.65;;;4.20;;
7835;SDS011;3963;42.658;23.298;2022-08-19T10:32:55;5.22;;;4.10;;
7835;SDS011;3963;42.658;23.298;2022-08-19T10:35:22;4.55;;;4.05;;
7835;SDS011;3963;42.658;23.298;2022-08-19T10:37:51;4.63;;;4.18;;
7835;SDS011;3963;42.658;23.298;2022-08-19T10:40:18;5.70;;;4.05;;
7835;SDS011;3963;42.658;23.298;2022-08-19T10:42:45;6.78;;;3.83;;
7835;SDS011;3963;42.658;23.298;2022-08-19T10:45:12;4.63;;;4.22;;
7835;SDS011;3963;42.658;23.298;2022-08-19T10:47:40;5.22;;;4.50;;
7835;SDS011;3963;42.658;23.298;2022-08-19T10:50:07;6.00;;;4.22;;
7835;SDS011;3963;42.658;23.298;2022-08-19T10:52:51;4.38;;;3.85;;
7835;SDS011;3963;42.658;23.298;2022-08-19T10:55:19;4.78;;;4.38;;
7835;SDS011;3963;42.658;23.298;2022-08-19T10:58:09;7.28;;;4.13;;
7835;SDS011;3963;42.658;23.298;2022-08-19T11:00:38;5.68;;;4.57;;
7835;SDS011;3963;42.658;23.298;2022-08-19T11:03:07;5.97;;;4.50;;
7835;SDS011;3963;42.658;23.298;2022-08-19T11:05:34;8.00;;;4.97;;
7835;SDS011;3963;42.658;23.298;2022-08-19T11:08:02;7.03;;;4.63;;
7835;SDS011;3963;42.658;23.298;2022-08-19T11:10:32;4.40;;;4.00;;
7835;SDS011;3963;42.658;23.298;2022-08-19T11:12:59;7.82;;;4.85;;
7835;SDS011;3963;42.658;23.298;2022-08-19T11:15:25;7.03;;;4.25;;
7835;SDS011;3963;42.658;23.298;2022-08-19T11:17:53;8.07;;;6.03;;
7835;SDS011;3963;42.658;23.298;2022-08-19T11:20:22;5.13;;;4.63;;
7835;SDS011;3963;42.658;23.298;2022-08-19T11:22:51;7.07;;;4.40;;
7835;SDS011;3963;42.658;23.298;2022-08-19T11:25:19;6.07;;;4.50;;
7835;SDS011;3963;42.658;23.298;2022-08-19T11:27:47;5.53;;;4.20;;
7835;SDS011;3963;42.658;23.298;2022-08-19T11:30:16;7.43;;;4.97;;
7835;SDS011;3963;42.658;23.298;2022-08-19T11:32:43;5.70;;;4.60;;
7835;SDS011;3963;42.658;23.298;2022-08-19T11:35:09;6.07;;;4.80;;
7835;SDS011;3963;42.658;23.298;2022-08-19T11:37:38;6.07;;;4.45;;
7835;SDS011;3963;42.658;23.298;2022-08-19T11:40:06;8.27;;;4.25;;
7835;SDS011;3963;42.658;23.298;2022-08-19T11:42:33;5.90;;;4.47;;
7835;SDS011;3963;42.658;23.298;2022-08-19T11:45:17;6.18;;;4.82;;
7835;SDS011;3963;42.658;23.298;2022-08-19T11:47:44;6.82;;;4.35;;
7835;SDS011;3963;42.658;23.298;2022-08-19T11:50:12;5.65;;;4.43;;
7835;SDS011;3963;42.658;23.298;2022-08-19T11:52:41;6.78;;;4.78;;
7835;SDS011;3963;42.658;23.298;2022-08-19T11:55:10;7.07;;;4.60;;
7835;SDS011;3963;42.658;23.298;2022-08-19T11:57:37;6.05;;;4.72;;
7835;SDS011;3963;42.658;23.298;2022-08-19T12:00:06;8.07;;;5.05;;
7835;SDS011;3963;42.658;23.298;2022-08-19T12:02:34;10.30;;;4.68;;
7835;SDS011;3963;42.658;23.298;2022-08-19T12:05:01;7.63;;;4.50;;
7835;SDS011;3963;42.658;23.298;2022-08-19T12:07:28;7.78;;;4.60;;
7835;SDS011;3963;42.658;23.298;2022-08-19T12:10:00;8.80;;;5.18;;
7835;SDS011;3963;42.658;23.298;2022-08-19T12:12:27;6.85;;;4.78;;
7835;SDS011;3963;42.658;23.298;2022-08-19T12:14:54;7.13;;;4.60;;
7835;SDS011;3963;42.658;23.298;2022-08-19T12:17:23;6.60;;;4.60;;
7835;SDS011;3963;42.658;23.298;2022-08-19T12:19:52;6.40;;;4.95;;
7835;SDS011;3963;42.658;23.298;2022-08-19T12:22:19;5.10;;;4.38;;
7835;SDS011;3963;42.658;23.298;2022-08-19T12:24:46;7.68;;;4.82;;
7835;SDS011;3963;42.658;23.298;2022-08-19T12:27:16;6.32;;;4.75;;
7835;SDS011;3963;42.658;23.298;2022-08-19T12:29:43;5.90;;;4.80;;
7835;SDS011;3963;42.658;23.298;2022-08-19T12:32:10;7.63;;;5.00;;
7835;SDS011;3963;42.658;23.298;2022-08-19T12:34:37;4.93;;;4.40;;
7835;SDS011;3963;42.658;23.298;2022-08-19T12:37:04;8.93;;;5.47;;
7835;SDS011;3963;42.658;23.298;2022-08-19T12:39:33;5.40;;;4.60;;
7835;SDS011;3963;42.658;23.298;2022-08-19T12:42:02;5.53;;;4.70;;
7835;SDS011;3963;42.658;23.298;2022-08-19T12:44:31;5.40;;;4.85;;
7835;SDS011;3963;42.658;23.298;2022-08-19T12:46:58;7.53;;;4.57;;
7835;SDS011;3963;42.658;23.298;2022-08-19T12:49:26;5.60;;;4.80;;
7835;SDS011;3963;42.658;23.298;2022-08-19T12:51:54;8.93;;;4.60;;
7835;SDS011;3963;42.658;23.298;2022-08-19T12:54:23;8.07;;;5.25;;
7835;SDS011;3963;42.658;23.298;2022-08-19T12:56:49;8.00;;;4.95;;
7835;SDS011;3963;42.658;23.298;2022-08-19T12:59:16;7.20;;;4.88;;
7835;SDS011;3963;42.658;23.298;2022-08-19T13:01:45;10.35;;;4.63;;
7835;SDS011;3963;42.658;23.298;2022-08-19T13:04:12;6.88;;;4.95;;
7835;SDS011;3963;42.658;23.298;2022-08-19T13:06:38;6.88;;;4.50;;
7835;SDS011;3963;42.658;23.298;2022-08-19T13:09:05;5.88;;;4.30;;
7835;SDS011;3963;42.658;23.298;2022-08-19T13:11:32;4.85;;;4.35;;
7835;SDS011;3963;42.658;23.298;2022-08-19T13:13:59;7.53;;;4.80;;
7835;SDS011;3963;42.658;23.298;2022-08-19T13:16:27;8.02;;;4.60;;
7835;SDS011;3963;42.658;23.298;2022-08-19T13:18:56;8.13;;;4.90;;
7835;SDS011;3963;42.658;23.298;2022-08-19T13:21:24;5.90;;;4.70;;
7835;SDS011;3963;42.658;23.298;2022-08-19T13:23:55;7.10;;;4.55;;
7835;SDS011;3963;42.658;23.298;2022-08-19T13:26:21;7.03;;;5.13;;
7835;SDS011;3963;42.658;23.298;2022-08-19T13:28:49;5.63;;;4.85;;
7835;SDS011;3963;42.658;23.298;2022-08-19T13:31:34;5.75;;;4.75;;
7835;SDS011;3963;42.658;23.298;2022-08-19T13:34:27;6.65;;;4.68;;
7835;SDS011;3963;42.658;23.298;2022-08-19T13:36:56;5.55;;;4.82;;
7835;SDS011;3963;42.658;23.298;2022-08-19T13:39:23;5.75;;;5.18;;
7835;SDS011;3963;42.658;23.298;2022-08-19T13:41:50;7.60;;;4.65;;
7835;SDS011;3963;42.658;23.298;2022-08-19T13:44:17;8.45;;;4.68;;
7835;SDS011;3963;42.658;23.298;2022-08-19T13:46:45;5.78;;;4.93;;
7835;SDS011;3963;42.658;23.298;2022-08-19T13:49:12;5.65;;;4.53;;
7835;SDS011;3963;42.658;23.298;2022-08-19T13:51:41;5.78;;;4.97;;
7835;SDS011;3963;42.658;23.298;2022-08-19T13:54:09;13.18;;;5.00;;
7835;SDS011;3963;42.658;23.298;2022-08-19T13:56:39;6.68;;;4.90;;
7835;SDS011;3963;42.658;23.298;2022-08-19T13:59:07;6.13;;;4.60;;
7835;SDS011;3963;42.658;23.298;2022-08-19T14:01:33;6.05;;;4.70;;
7835;SDS011;3963;42.658;23.298;2022-08-19T14:04:00;8.35;;;4.65;;
7835;SDS011;3963;42.658;23.298;2022-08-19T14:06:27;9.85;;;6.28;;
7835;SDS011;3963;42.658;23.298;2022-08-19T14:08:55;6.30;;;4.47;;
7835;SDS011;3963;42.658;23.298;2022-08-19T14:11:22;8.15;;;4.72;;
7835;SDS011;3963;42.658;23.298;2022-08-19T14:13:49;7.03;;;4.68;;
7835;SDS011;3963;42.658;23.298;2022-08-19T14:16:16;7.55;;;4.80;;
7835;SDS011;3963;42.658;23.298;2022-08-19T14:18:43;7.32;;;5.13;;
7835;SDS011;3963;42.658;23.298;2022-08-19T14:21:13;5.80;;;4.47;;
7835;SDS011;3963;42.658;23.298;2022-08-19T14:23:42;8.20;;;5.20;;
7835;SDS011;3963;42.658;23.298;2022-08-19T14:26:12;8.35;;;5.10;;
7835;SDS011;3963;42.658;23.298;2022-08-19T14:28:41;6.72;;;4.57;;
7835;SDS011;3963;42.658;23.298;2022-08-19T14:31:09;8.52;;;4.60;;
7835;SDS011;3963;42.658;23.298;2022-08-19T14:33:36;6.75;;;4.88;;
7835;SDS011;3963;42.658;23.298;2022-08-19T14:36:03;6.82;;;4.88;;
7835;SDS011;3963;42.658;23.298;2022-08-19T14:38:30;6.72;;;4.72;;
7835;SDS011;3963;42.658;23.298;2022-08-19T14:41:08;6.10;;;5.30;;
7835;SDS011;3963;42.658;23.298;2022-08-19T14:43:38;5.90;;;5.30;;
7835;SDS011;3963;42.658;23.298;2022-08-19T14:46:05;6.25;;;4.38;;
7835;SDS011;3963;42.658;23.298;2022-08-19T14:48:33;8.07;;;4.65;;
7835;SDS011;3963;42.658;23.298;2022-08-19T14:51:01;8.73;;;5.00;;
7835;SDS011;3963;42.658;23.298;2022-08-19T14:53:28;6.70;;;4.95;;
7835;SDS011;3963;42.658;23.298;2022-08-19T14:55:55;6.47;;;5.15;;
7835;SDS011;3963;42.658;23.298;2022-08-19T14:58:21;6.40;;;5.13;;
7835;SDS011;3963;42.658;23.298;2022-08-19T15:00:50;7.55;;;5.13;;
7835;SDS011;3963;42.658;23.298;2022-08-19T15:03:17;7.63;;;4.60;;
7835;SDS011;3963;42.658;23.298;2022-08-19T15:05:44;7.20;;;5.22;;